Time;durP1;ratioP1;P1;durP2;ratioP2;P2;SDS_P1;SDS_P2;PMS_P1;PMS_P2;Temp;Humidity;BMP_temperature;BMP_pressure;BME280_temperature;BME280_humidity;BME280_pressure;Samples;Min_cycle;Max_cycle;Signal;HPM_P1;HPM_P2
2022/07/29 00:00:46;;;;;;;2.97;1.65;;;14.40;99.90;;;;;;4939650;28;20054;-61
2022/07/29 00:03:13;;;;;;;5.35;1.55;;;14.40;99.90;;;;;;4955443;28;20078;-61
2022/07/29 00:05:41;;;;;;;3.10;1.70;;;14.30;99.90;;;;;;4955799;28;20438;-61
2022/07/29 00:08:08;;;;;;;2.95;1.20;;;14.30;99.90;;;;;;4962108;28;20058;-61
2022/07/29 00:10:34;;;;;;;4.43;1.67;;;14.30;99.90;;;;;;4978783;28;20057;-61
2022/07/29 00:13:01;;;;;;;4.45;1.73;;;14.30;99.90;;;;;;4978679;28;20511;-61
2022/07/29 00:15:27;;;;;;;4.75;1.80;;;14.30;99.90;;;;;;4978850;28;20096;-61
2022/07/29 00:17:53;;;;;;;4.05;1.67;;;14.30;99.90;;;;;;4962582;28;20068;-61
2022/07/29 00:20:19;;;;;;;3.83;1.73;;;14.30;99.90;;;;;;4996062;28;20046;-62
2022/07/29 00:22:45;;;;;;;2.53;1.48;;;14.30;99.90;;;;;;4978813;28;20054;-61
2022/07/29 00:25:12;;;;;;;2.83;1.48;;;14.20;99.90;;;;;;4978517;28;20124;-61
2022/07/29 00:27:38;;;;;;;5.97;1.80;;;14.20;99.90;;;;;;4978418;28;20050;-61
2022/07/29 00:30:05;;;;;;;2.70;1.20;;;14.20;99.90;;;;;;4993602;28;20121;-61
2022/07/29 00:32:31;;;;;;;4.25;1.70;;;14.20;99.90;;;;;;4995672;28;20050;-62
2022/07/29 00:37:41;;;;;;;4.55;2.03;;;14.20;99.90;;;;;;4978084;28;20129;-61
2022/07/29 00:40:08;;;;;;;2.72;1.50;;;14.20;99.90;;;;;;4961905;28;20073;-62
2022/07/29 00:42:48;;;;;;;3.00;1.33;;;14.10;99.90;;;;;;4995853;28;20057;-61
2022/07/29 00:45:15;;;;;;;3.60;1.55;;;14.10;99.90;;;;;;4961979;28;20057;-61
2022/07/29 00:47:41;;;;;;;3.75;1.75;;;14.20;99.90;;;;;;4978082;28;20042;-61
2022/07/29 00:50:10;;;;;;;3.33;1.60;;;14.20;99.90;;;;;;4995179;28;20578;-62
2022/07/29 00:52:37;;;;;;;5.15;1.60;;;14.20;99.90;;;;;;4977924;28;20074;-61
2022/07/29 00:55:05;;;;;;;3.83;1.88;;;14.30;99.90;;;;;;4995228;28;20104;-61
2022/07/29 00:57:32;;;;;;;4.45;2.05;;;14.20;99.90;;;;;;4961925;28;20049;-62
2022/07/29 00:59:57;;;;;;;4.65;1.75;;;14.30;99.90;;;;;;4959497;28;20419;-63
2022/07/29 01:02:23;;;;;;;4.53;1.60;;;14.30;99.90;;;;;;4977793;28;20110;-62
2022/07/29 01:04:49;;;;;;;3.28;2.10;;;14.30;99.90;;;;;;4961524;28;20170;-62
2022/07/29 01:07:17;;;;;;;5.53;2.50;;;14.30;99.90;;;;;;4995079;28;20093;-63
2022/07/29 01:09:45;;;;;;;4.03;1.63;;;14.30;99.90;;;;;;4977581;28;20066;-62
2022/07/29 01:12:21;;;;;;;4.32;1.48;;;14.30;99.90;;;;;;4995286;28;20052;-62
2022/07/29 01:14:48;;;;;;;5.25;2.00;;;14.30;99.90;;;;;;4977826;28;20105;-63
2022/07/29 01:17:18;;;;;;;4.85;1.75;;;14.30;99.90;;;;;;4961467;28;20042;-60
2022/07/29 01:19:53;;;;;;;3.22;1.80;;;14.30;99.90;;;;;;4994275;28;20121;-62
2022/07/29 01:22:26;;;;;;;6.28;2.22;;;14.30;99.90;;;;;;4961625;28;20049;-62
2022/07/29 01:25:09;;;;;;;6.32;2.30;;;14.30;99.90;;;;;;4995053;28;20038;-62
2022/07/29 01:28:07;;;;;;;4.13;2.08;;;14.30;99.90;;;;;;4994780;28;20121;-62
2022/07/29 01:30:35;;;;;;;3.53;1.73;;;14.30;99.90;;;;;;4974943;28;20217;-62
2022/07/29 01:33:06;;;;;;;4.18;2.20;;;14.30;99.90;;;;;;4977510;28;20409;-62
2022/07/29 01:35:38;;;;;;;5.68;1.85;;;14.30;99.90;;;;;;4977354;28;20189;-62
2022/07/29 01:38:17;;;;;;;5.30;2.20;;;14.30;99.90;;;;;;4977249;28;20409;-62
2022/07/29 01:40:46;;;;;;;3.40;1.85;;;14.30;99.90;;;;;;4977085;28;20042;-62
2022/07/29 01:43:19;;;;;;;3.28;1.95;;;14.30;99.90;;;;;;4994793;28;20034;-62
2022/07/29 01:46:02;;;;;;;4.35;1.80;;;14.30;99.90;;;;;;4994452;28;20122;-62
2022/07/29 01:48:37;;;;;;;4.20;2.25;;;14.30;99.90;;;;;;4961208;28;20057;-62
2022/07/29 01:51:31;;;;;;;2.75;1.83;;;14.30;99.90;;;;;;4976830;28;20054;-61
2022/07/29 01:54:26;;;;;;;2.97;1.80;;;14.30;99.90;;;;;;4977064;28;20049;-61
2022/07/29 01:56:55;;;;;;;4.82;1.85;;;14.30;99.90;;;;;;4926304;28;20133;-61
2022/07/29 01:59:23;;;;;;;4.20;2.17;;;14.30;99.90;;;;;;4991767;28;20113;-62
2022/07/29 02:01:52;;;;;;;3.65;2.00;;;14.20;99.90;;;;;;4976669;28;20117;-62
2022/07/29 02:04:20;;;;;;;5.93;1.95;;;14.20;99.90;;;;;;4976680;28;20129;-62
2022/07/29 02:06:49;;;;;;;7.68;2.55;;;14.20;99.90;;;;;;4994092;28;20047;-62
2022/07/29 02:09:15;;;;;;;7.30;2.70;;;14.20;99.90;;;;;;5009409;28;20061;-62
2022/07/29 02:11:49;;;;;;;4.32;2.45;;;14.20;99.90;;;;;;4996142;28;20038;-62
2022/07/29 02:14:17;;;;;;;3.65;2.20;;;14.20;99.90;;;;;;4996048;28;20033;-62
2022/07/29 02:16:45;;;;;;;3.63;2.63;;;14.20;99.90;;;;;;4995950;28;20041;-61
2022/07/29 02:19:13;;;;;;;3.63;2.30;;;14.20;99.90;;;;;;5013507;28;20049;-62
2022/07/29 02:21:40;;;;;;;4.82;2.30;;;14.20;99.90;;;;;;5013314;28;20038;-62
2022/07/29 02:24:08;;;;;;;3.72;2.50;;;14.20;99.90;;;;;;5013335;28;20408;-62
2022/07/29 02:26:34;;;;;;;4.60;2.65;;;14.20;99.90;;;;;;4995423;28;20053;-62
2022/07/29 02:29:01;;;;;;;6.15;2.33;;;14.20;99.90;;;;;;4958401;28;20485;-62
2022/07/29 02:31:34;;;;;;;4.15;2.45;;;14.20;99.90;;;;;;4959705;28;20043;-63
2022/07/29 02:34:04;;;;;;;4.95;2.35;;;14.20;99.90;;;;;;4993456;28;20374;-62
2022/07/29 02:36:31;;;;;;;5.13;2.25;;;14.10;99.90;;;;;;4976037;28;20492;-61
2022/07/29 02:39:00;;;;;;;3.78;2.38;;;14.10;99.90;;;;;;4960069;28;20436;-62
2022/07/29 02:41:37;;;;;;;4.57;2.50;;;14.10;99.90;;;;;;4975911;28;20045;-62
2022/07/29 02:44:09;;;;;;;7.43;2.78;;;14.10;99.90;;;;;;4976269;28;20101;-62
2022/07/29 02:46:37;;;;;;;4.93;2.33;;;14.10;99.90;;;;;;4975767;28;20046;-62
2022/07/29 02:49:18;;;;;;;6.13;2.90;;;14.10;99.90;;;;;;4976118;28;20144;-62
2022/07/29 02:51:58;;;;;;;4.97;2.58;;;14.00;99.90;;;;;;4976088;28;20444;-61
2022/07/29 02:54:45;;;;;;;3.97;2.33;;;14.10;99.90;;;;;;4975864;28;20505;-62
2022/07/29 02:57:29;;;;;;;3.25;2.20;;;14.00;99.90;;;;;;4975665;28;20046;-62
2022/07/29 02:59:57;;;;;;;4.20;2.20;;;14.10;99.90;;;;;;4990696;28;20035;-62
2022/07/29 03:02:27;;;;;;;6.03;2.22;;;14.00;99.90;;;;;;4975887;28;20042;-62
2022/07/29 03:05:01;;;;;;;4.55;2.28;;;14.10;99.90;;;;;;5089456;27;20373;-60
2022/07/29 03:07:28;;;;;;;4.63;2.83;;;14.10;99.90;;;;;;5088434;28;20488;-60
2022/07/29 03:09:55;;;;;;;4.18;2.42;;;14.00;99.90;;;;;;5088088;28;20055;-60
2022/07/29 03:12:23;;;;;;;4.43;2.30;;;14.10;99.90;;;;;;5087912;28;20536;-60
2022/07/29 03:14:49;;;;;;;3.55;2.55;;;14.10;99.90;;;;;;5089269;28;20492;-60
2022/07/29 03:17:16;;;;;;;4.32;1.95;;;14.00;99.90;;;;;;5071042;28;20036;-61
2022/07/29 03:19:42;;;;;;;7.03;3.00;;;14.00;99.90;;;;;;5071184;28;20043;-60
2022/07/29 03:22:09;;;;;;;7.03;2.75;;;14.10;99.90;;;;;;5088097;28;20032;-60
2022/07/29 03:24:36;;;;;;;3.78;2.25;;;14.00;99.90;;;;;;5088945;28;20055;-61
2022/07/29 03:27:04;;;;;;;5.68;3.05;;;14.10;99.90;;;;;;5087875;28;20032;-60
2022/07/29 03:29:31;;;;;;;4.55;2.22;;;14.10;99.90;;;;;;5085544;28;20437;-60
2022/07/29 03:31:57;;;;;;;4.57;2.30;;;14.00;99.90;;;;;;5089095;28;20369;-60
2022/07/29 03:34:23;;;;;;;4.45;1.90;;;14.00;99.90;;;;;;5071064;28;20051;-60
2022/07/29 03:36:49;;;;;;;3.40;2.17;;;14.00;99.90;;;;;;5088868;28;20536;-60
2022/07/29 03:39:19;;;;;;;6.50;2.58;;;14.00;99.90;;;;;;5087565;28;20451;-60
2022/07/29 03:41:47;;;;;;;6.22;2.45;;;14.00;99.90;;;;;;5087353;28;20113;-60
2022/07/29 03:44:15;;;;;;;5.18;2.75;;;13.90;99.90;;;;;;5087396;28;20036;-60
2022/07/29 03:46:43;;;;;;;5.50;2.47;;;13.90;99.90;;;;;;5088615;28;20048;-60
2022/07/29 03:49:11;;;;;;;5.38;2.38;;;13.90;99.90;;;;;;5087648;28;20036;-60
2022/07/29 03:51:37;;;;;;;6.00;2.40;;;13.90;99.90;;;;;;5088482;28;20044;-60
2022/07/29 03:54:04;;;;;;;7.15;2.80;;;13.90;99.90;;;;;;5087315;28;20079;-60
2022/07/29 03:56:32;;;;;;;3.97;2.17;;;13.80;99.90;;;;;;5087428;28;20043;-60
2022/07/29 03:58:59;;;;;;;4.07;2.60;;;13.80;99.90;;;;;;5086258;28;20526;-60
2022/07/29 04:01:26;;;;;;;3.05;2.53;;;13.80;99.90;;;;;;5087297;28;20051;-60
2022/07/29 04:03:52;;;;;;;5.88;2.40;;;13.80;99.90;;;;;;5087079;28;20159;-60
2022/07/29 04:06:18;;;;;;;3.65;2.28;;;13.80;99.90;;;;;;5070174;28;20050;-60
2022/07/29 04:08:43;;;;;;;6.38;2.67;;;13.70;99.90;;;;;;5070249;28;20126;-60
2022/07/29 04:11:09;;;;;;;4.30;2.63;;;13.70;99.90;;;;;;5087133;28;20105;-61
2022/07/29 04:13:35;;;;;;;5.53;2.45;;;13.70;99.90;;;;;;5086934;28;20492;-60
2022/07/29 04:16:01;;;;;;;5.57;2.78;;;13.70;99.90;;;;;;5075463;28;20044;-61
2022/07/29 04:18:27;;;;;;;5.07;2.47;;;13.60;99.90;;;;;;5074688;28;20098;-60
2022/07/29 04:20:53;;;;;;;8.45;3.20;;;13.60;99.90;;;;;;5073279;28;20048;-60
2022/07/29 04:23:18;;;;;;;5.72;3.20;;;13.60;99.90;;;;;;5074241;28;20047;-60
2022/07/29 04:25:44;;;;;;;5.20;2.83;;;13.60;99.90;;;;;;5074448;28;20370;-60
2022/07/29 04:28:10;;;;;;;4.10;2.35;;;13.60;99.90;;;;;;5056330;28;20068;-60
2022/07/29 04:30:37;;;;;;;4.07;2.70;;;13.60;99.90;;;;;;5054380;28;20072;-60
2022/07/29 04:33:06;;;;;;;3.08;2.30;;;13.60;99.90;;;;;;5074058;28;20294;-60
2022/07/29 04:35:35;;;;;;;7.97;2.70;;;13.60;99.90;;;;;;5074321;28;20044;-60
2022/07/29 04:38:02;;;;;;;5.90;2.93;;;13.60;99.90;;;;;;5074154;28;20037;-60
2022/07/29 04:40:28;;;;;;;5.00;2.95;;;13.50;99.90;;;;;;5074390;28;20059;-60
2022/07/29 04:42:54;;;;;;;5.72;2.47;;;13.60;99.90;;;;;;5073033;28;20037;-60
2022/07/29 04:45:20;;;;;;;3.75;2.47;;;13.50;99.90;;;;;;5073127;28;20102;-61
2022/07/29 04:47:46;;;;;;;5.28;2.30;;;13.60;99.90;;;;;;5056051;28;20044;-60
2022/07/29 04:50:12;;;;;;;4.47;2.55;;;13.60;99.90;;;;;;5073900;28;20098;-60
2022/07/29 04:52:37;;;;;;;4.10;2.25;;;13.60;99.90;;;;;;5074115;28;20454;-60
2022/07/29 04:55:05;;;;;;;4.45;2.47;;;13.60;99.90;;;;;;5056018;28;20036;-60
2022/07/29 04:57:31;;;;;;;3.15;2.10;;;13.60;99.90;;;;;;5072585;28;20483;-60
2022/07/29 04:59:57;;;;;;;5.68;2.38;;;13.60;99.90;;;;;;5071527;28;20119;-60
2022/07/29 05:02:23;;;;;;;6.22;2.22;;;13.60;99.90;;;;;;5072317;28;20044;-61
2022/07/29 05:04:49;;;;;;;6.50;2.63;;;13.70;99.90;;;;;;5072241;28;20142;-60
2022/07/29 05:07:15;;;;;;;5.03;2.22;;;13.60;99.90;;;;;;5073587;28;20488;-60
2022/07/29 05:09:40;;;;;;;5.15;2.17;;;13.70;99.90;;;;;;5072424;28;20116;-60
2022/07/29 05:12:07;;;;;;;4.93;2.60;;;13.70;99.90;;;;;;5055563;28;20128;-61
2022/07/29 05:14:33;;;;;;;6.10;2.40;;;13.70;99.90;;;;;;5056031;28;20493;-60
2022/07/29 05:16:59;;;;;;;5.78;2.78;;;13.70;99.90;;;;;;5072200;28;20135;-60
2022/07/29 05:19:24;;;;;;;5.38;2.47;;;13.70;99.90;;;;;;5072137;28;20074;-60
2022/07/29 05:21:50;;;;;;;4.53;2.33;;;13.70;99.90;;;;;;5073295;28;20162;-60
2022/07/29 05:24:16;;;;;;;5.32;2.50;;;13.70;99.90;;;;;;5073462;28;20043;-60
2022/07/29 05:26:42;;;;;;;6.10;2.50;;;13.70;99.90;;;;;;5054347;28;20044;-60
2022/07/29 05:29:08;;;;;;;7.15;2.40;;;13.80;99.90;;;;;;5070901;28;20409;-60
2022/07/29 05:31:34;;;;;;;4.93;2.92;;;13.80;99.90;;;;;;5071883;28;20507;-60
2022/07/29 05:34:00;;;;;;;7.07;2.70;;;13.90;99.90;;;;;;5055111;28;20048;-60
2022/07/29 05:36:26;;;;;;;6.63;2.70;;;13.90;99.90;;;;;;5072928;28;20088;-60
2022/07/29 05:38:52;;;;;;;6.18;2.78;;;14.00;99.90;;;;;;5071716;28;20048;-61
2022/07/29 05:41:19;;;;;;;4.88;2.65;;;14.10;99.90;;;;;;5071735;28;20044;-60
2022/07/29 05:43:45;;;;;;;6.93;2.60;;;14.20;99.90;;;;;;5071506;28;20040;-60
2022/07/29 05:46:10;;;;;;;5.40;2.10;;;14.30;99.90;;;;;;5072016;28;20051;-60
2022/07/29 05:48:36;;;;;;;4.55;2.10;;;14.50;99.90;;;;;;5072774;28;20037;-60
2022/07/29 05:51:02;;;;;;;6.95;2.47;;;14.60;99.90;;;;;;5072763;28;20370;-60
2022/07/29 05:53:28;;;;;;;3.88;2.38;;;14.80;99.90;;;;;;5055003;28;20041;-60
2022/07/29 05:55:54;;;;;;;3.28;2.00;;;14.90;99.90;;;;;;5072859;28;20542;-60
2022/07/29 05:58:20;;;;;;;7.07;2.22;;;15.00;99.90;;;;;;5071916;28;20075;-60
2022/07/29 06:00:46;;;;;;;4.25;1.80;;;15.10;99.90;;;;;;5070375;28;20496;-61
2022/07/29 06:03:12;;;;;;;6.32;2.22;;;15.20;99.90;;;;;;5054548;28;20057;-61
2022/07/29 06:05:38;;;;;;;4.57;1.80;;;15.20;99.90;;;;;;5071303;28;20476;-60
2022/07/29 06:08:07;;;;;;;4.93;1.95;;;15.30;99.90;;;;;;5071416;28;20040;-60
2022/07/29 06:10:35;;;;;;;5.95;1.98;;;15.40;99.90;;;;;;5071187;28;20047;-60
2022/07/29 06:13:01;;;;;;;5.82;1.95;;;15.50;99.90;;;;;;5072430;28;20115;-61
2022/07/29 06:15:27;;;;;;;4.80;1.98;;;15.60;99.90;;;;;;5071151;28;20511;-61
2022/07/29 06:17:53;;;;;;;8.18;2.75;;;15.70;99.90;;;;;;5072190;28;20103;-59
2022/07/29 06:20:19;;;;;;;8.45;1.90;;;15.70;99.90;;;;;;5071255;28;20051;-60
2022/07/29 06:22:45;;;;;;;4.72;1.80;;;15.80;99.90;;;;;;5071283;28;20435;-60
2022/07/29 06:25:11;;;;;;;5.38;2.00;;;15.80;99.90;;;;;;5070960;28;20044;-60
2022/07/29 06:27:37;;;;;;;4.53;1.60;;;15.80;99.90;;;;;;5068166;28;20044;-60
2022/07/29 06:30:06;;;;;;;5.38;2.00;;;15.90;99.90;;;;;;5052469;28;20044;-62
2022/07/29 06:32:32;;;;;;;4.80;2.05;;;15.90;99.90;;;;;;5071439;28;20045;-62
2022/07/29 06:34:58;;;;;;;5.65;2.25;;;15.90;99.90;;;;;;5071714;28;20434;-62
2022/07/29 06:37:24;;;;;;;4.97;2.20;;;16.00;99.90;;;;;;5072063;28;20076;-62
2022/07/29 06:40:59;;;;;;;4.15;2.00;;;16.10;99.90;;;;;;5054207;28;20040;-61
2022/07/29 06:42:36;;;;;;;8.05;2.40;;;16.10;99.90;;;;;;5071706;28;20044;-62
2022/07/29 06:45:02;;;;;;;4.05;1.70;;;16.20;99.90;;;;;;5071829;28;20110;-61
2022/07/29 06:47:27;;;;;;;7.68;2.00;;;16.40;99.90;;;;;;5070924;28;20036;-63
2022/07/29 06:49:53;;;;;;;5.18;1.80;;;16.60;99.90;;;;;;5070564;28;20068;-64
2022/07/29 06:52:20;;;;;;;5.28;1.90;;;16.80;99.90;;;;;;5070664;28;20120;-62
2022/07/29 06:54:47;;;;;;;6.20;1.92;;;17.00;99.90;;;;;;5070594;28;20493;-61
2022/07/29 06:57:14;;;;;;;5.55;2.10;;;17.10;99.90;;;;;;5071859;28;20080;-63
2022/07/29 06:59:39;;;;;;;5.97;2.03;;;17.10;99.90;;;;;;5068175;28;20047;-62
2022/07/29 07:02:05;;;;;;;3.38;1.52;;;17.10;99.90;;;;;;5070783;28;20638;-63
2022/07/29 07:04:31;;;;;;;5.25;2.13;;;17.20;99.90;;;;;;5071450;28;20068;-62
2022/07/29 07:06:58;;;;;;;5.57;1.85;;;17.30;99.90;;;;;;5070720;28;20040;-63
2022/07/29 07:09:25;;;;;;;2.97;1.60;;;17.30;99.90;;;;;;5069961;28;20446;-64
2022/07/29 07:11:52;;;;;;;5.10;1.73;;;17.30;99.90;;;;;;5070415;28;20089;-63
2022/07/29 07:14:18;;;;;;;3.88;1.90;;;17.40;99.90;;;;;;5068513;28;20044;-63
2022/07/29 07:16:44;;;;;;;3.40;1.90;;;17.30;99.90;;;;;;5064395;28;20532;-64
2022/07/29 07:19:09;;;;;;;5.50;1.58;;;17.40;99.90;;;;;;5072438;28;20068;-64
2022/07/29 07:21:37;;;;;;;4.38;2.00;;;17.30;99.90;;;;;;5069409;28;20453;-64
2022/07/29 07:24:03;;;;;;;5.03;1.63;;;17.30;99.90;;;;;;5070872;28;20040;-64
2022/07/29 07:26:29;;;;;;;4.88;1.85;;;17.20;99.90;;;;;;5071771;28;20085;-62
2022/07/29 07:28:55;;;;;;;3.08;1.60;;;17.20;99.90;;;;;;5068231;28;20120;-64
2022/07/29 07:31:21;;;;;;;3.35;1.70;;;17.10;99.90;;;;;;5071216;28;20040;-63
2022/07/29 07:33:47;;;;;;;5.13;1.92;;;17.00;99.90;;;;;;5071079;28;20393;-64
2022/07/29 07:36:13;;;;;;;7.50;2.10;;;16.90;99.90;;;;;;5070994;28;20044;-65
2022/07/29 07:38:38;;;;;;;4.63;1.63;;;16.80;99.90;;;;;;5071147;28;20665;-63
2022/07/29 07:41:05;;;;;;;4.32;2.20;;;16.70;99.90;;;;;;5070609;28;20040;-63
2022/07/29 07:43:31;;;;;;;8.60;2.30;;;16.70;99.90;;;;;;5069329;28;20061;-64
2022/07/29 07:45:57;;;;;;;5.13;1.88;;;16.60;99.90;;;;;;5054394;28;20465;-63
2022/07/29 07:48:23;;;;;;;6.43;2.15;;;16.50;99.90;;;;;;5071977;28;20041;-64
2022/07/29 07:50:50;;;;;;;9.10;2.35;;;16.40;99.90;;;;;;5072958;28;20043;-64
2022/07/29 07:53:16;;;;;;;3.47;2.15;;;16.30;99.90;;;;;;5075784;28;20068;-64
2022/07/29 07:55:43;;;;;;;6.18;2.10;;;16.20;99.90;;;;;;5075597;28;20661;-64
2022/07/29 07:58:09;;;;;;;5.05;2.10;;;16.10;99.90;;;;;;5075301;28;20550;-64
2022/07/29 08:00:35;;;;;;;5.10;2.05;;;16.10;99.90;;;;;;5055274;28;20501;-64
2022/07/29 08:03:02;;;;;;;2.63;1.83;;;16.10;99.90;;;;;;5075449;28;20065;-64
2022/07/29 08:05:28;;;;;;;4.35;2.28;;;16.00;99.90;;;;;;5074004;28;20044;-64
2022/07/29 08:07:54;;;;;;;3.50;2.08;;;16.00;99.90;;;;;;5074071;28;20040;-64
2022/07/29 08:13:08;;;;;;;5.05;2.63;;;15.90;99.90;;;;;;5075726;28;20072;-64
2022/07/29 08:15:34;;;;;;;;;;;15.90;99.90;;;;;;5074501;28;20048;-63
2022/07/29 08:18:01;;;;;;;7.05;2.50;;;16.00;99.90;;;;;;5057580;28;19923;-64
2022/07/29 08:20:27;;;;;;;5.43;2.33;;;15.90;99.90;;;;;;5073923;28;20044;-63
2022/07/29 08:22:53;;;;;;;9.95;2.35;;;15.90;99.90;;;;;;5074060;28;20048;-64
2022/07/29 08:25:20;;;;;;;5.35;2.67;;;16.00;99.90;;;;;;5057250;28;20085;-64
2022/07/29 08:27:46;;;;;;;9.93;2.95;;;16.10;99.90;;;;;;5057360;28;20040;-64
2022/07/29 08:30:13;;;;;;;5.88;2.53;;;16.10;99.90;;;;;;5071633;28;20051;-64
2022/07/29 08:32:38;;;;;;;9.60;3.28;;;16.10;99.90;;;;;;5073909;28;20071;-65
2022/07/29 08:35:05;;;;;;;7.13;2.67;;;16.20;99.90;;;;;;5057141;28;20087;-64
2022/07/29 08:37:31;;;;;;;5.53;2.35;;;16.30;99.90;;;;;;5073921;28;20048;-64
2022/07/29 08:39:57;;;;;;;8.50;2.90;;;16.40;99.90;;;;;;5072716;28;20041;-65
2022/07/29 08:42:23;;;;;;;10.90;2.60;;;16.50;99.90;;;;;;5073395;28;20106;-65
2022/07/29 08:44:50;;;;;;;7.78;2.92;;;16.60;99.90;;;;;;5073467;28;20131;-64
2022/07/29 08:47:16;;;;;;;6.95;2.45;;;16.80;99.90;;;;;;5074821;28;20455;-64
2022/07/29 08:49:43;;;;;;;5.53;2.42;;;16.80;99.90;;;;;;5073411;28;20078;-64
2022/07/29 08:52:12;;;;;;;6.13;2.70;;;17.00;99.90;;;;;;5074573;28;20044;-65
2022/07/29 08:54:43;;;;;;;6.88;3.40;;;17.10;99.90;;;;;;5074285;28;20560;-65
2022/07/29 08:57:12;;;;;;;5.63;2.60;;;17.30;99.90;;;;;;5074693;28;20370;-64
2022/07/29 08:59:42;;;;;;;4.20;2.92;;;17.40;99.90;;;;;;5072252;28;20098;-65
2022/07/29 09:02:18;;;;;;;5.70;2.25;;;17.60;99.90;;;;;;5074369;28;20048;-64
2022/07/29 09:04:46;;;;;;;6.75;2.33;;;17.80;99.90;;;;;;5056118;28;20091;-64
2022/07/29 09:07:15;;;;;;;4.53;2.63;;;17.90;99.90;;;;;;5073133;28;20044;-64
2022/07/29 09:09:42;;;;;;;5.65;2.38;;;18.00;99.90;;;;;;5073062;28;20044;-64
2022/07/29 09:12:11;;;;;;;6.30;2.67;;;18.10;99.90;;;;;;5074395;28;20039;-64
2022/07/29 09:14:38;;;;;;;6.07;2.92;;;18.20;99.90;;;;;;5072779;28;20064;-64
2022/07/29 09:17:04;;;;;;;4.20;2.70;;;18.30;99.90;;;;;;5074063;28;20040;-64
2022/07/29 09:19:34;;;;;;;5.43;2.55;;;18.30;99.90;;;;;;5072688;28;20097;-65
2022/07/29 09:22:02;;;;;;;6.03;2.65;;;18.30;99.90;;;;;;5073069;28;20389;-65
2022/07/29 09:24:50;;;;;;;5.13;2.45;;;18.20;99.90;;;;;;5073708;28;20040;-64
2022/07/29 09:27:21;;;;;;;4.25;2.97;;;18.20;99.90;;;;;;5072785;28;20105;-63
2022/07/29 09:30:00;;;;;;;5.18;2.13;;;18.10;99.90;;;;;;5069647;28;20064;-63
2022/07/29 09:32:26;;;;;;;6.90;2.42;;;18.10;99.90;;;;;;5072599;28;20033;-63
2022/07/29 09:35:16;;;;;;;9.35;3.33;;;18.10;99.90;;;;;;5073746;28;20048;-63
2022/07/29 09:37:43;;;;;;;5.15;2.50;;;18.00;99.90;;;;;;5106660;28;20047;-64
2022/07/29 09:40:22;;;;;;;5.53;2.47;;;18.00;99.90;;;;;;5073631;28;20049;-64
2022/07/29 09:42:49;;;;;;;7.10;2.57;;;17.90;99.90;;;;;;5072393;28;20497;-64
2022/07/29 09:45:32;;;;;;;5.40;3.00;;;17.80;99.90;;;;;;5073658;28;20040;-63
2022/07/29 09:48:02;;;;;;;8.80;2.90;;;17.80;99.90;;;;;;5072486;28;20492;-64
2022/07/29 09:50:39;;;;;;;5.03;2.55;;;17.70;99.90;;;;;;5071262;28;20119;-64
2022/07/29 09:53:05;;;;;;;6.20;3.28;;;17.70;99.90;;;;;;5072487;28;20075;-63
2022/07/29 09:55:32;;;;;;;4.22;2.97;;;17.60;99.90;;;;;;5072129;28;20225;-63
2022/07/29 09:58:18;;;;;;;5.28;2.47;;;17.70;99.90;;;;;;5071965;28;20067;-64
2022/07/29 10:00:46;;;;;;;5.85;2.65;;;17.70;99.90;;;;;;5069452;28;20051;-64
2022/07/29 10:03:13;;;;;;;4.55;2.80;;;17.80;99.90;;;;;;5071680;28;20091;-63
2022/07/29 10:05:41;;;;;;;7.18;2.78;;;18.00;99.90;;;;;;5073132;28;20045;-63
2022/07/29 10:08:09;;;;;;;8.38;3.30;;;18.10;99.90;;;;;;5055238;28;20043;-64
2022/07/29 10:10:42;;;;;;;5.05;2.50;;;18.30;99.90;;;;;;5071542;28;20033;-64
2022/07/29 10:13:13;;;;;;;8.70;3.20;;;18.50;99.90;;;;;;5072615;28;20524;-63
2022/07/29 10:15:43;;;;;;;4.80;2.60;;;18.70;99.90;;;;;;5071609;28;20052;-63
2022/07/29 10:18:11;;;;;;;6.18;2.45;;;18.80;99.90;;;;;;5071572;28;20048;-63
2022/07/29 10:20:39;;;;;;;6.85;2.83;;;18.90;99.90;;;;;;5071461;28;20070;-64
2022/07/29 10:23:05;;;;;;;5.22;2.30;;;18.90;99.90;;;;;;5071690;28;20037;-64
2022/07/29 10:25:31;;;;;;;8.05;2.40;;;18.90;99.90;;;;;;5072851;28;20036;-63
2022/07/29 10:27:57;;;;;;;4.88;2.80;;;18.80;99.90;;;;;;5054788;28;20119;-63
2022/07/29 10:30:25;;;;;;;5.32;2.55;;;18.90;99.90;;;;;;5069602;28;20032;-63
2022/07/29 10:33:06;;;;;;;6.43;2.92;;;19.00;99.90;;;;;;5073083;28;20166;-63
2022/07/29 10:35:54;;;;;;;7.78;2.72;;;19.20;99.90;;;;;;5071977;28;20037;-64
2022/07/29 10:38:41;;;;;;;5.28;3.03;;;19.40;99.90;;;;;;5071331;28;20123;-63
2022/07/29 10:41:26;;;;;;;6.53;2.80;;;19.60;99.90;;;;;;5071616;28;20051;-64
2022/07/29 10:44:06;;;;;;;5.93;3.20;;;19.70;99.90;;;;;;5071257;28;20059;-62
2022/07/29 10:46:40;;;;;;;7.90;2.78;;;19.70;99.90;;;;;;5054540;28;20079;-64
2022/07/29 10:49:18;;;;;;;9.35;3.50;;;19.90;99.90;;;;;;5071286;28;20068;-62
2022/07/29 10:52:04;;;;;;;6.95;2.70;;;20.00;99.90;;;;;;5071444;28;20389;-63
2022/07/29 10:54:36;;;;;;;8.05;3.20;;;20.10;99.90;;;;;;5071192;28;20079;-64
2022/07/29 10:57:12;;;;;;;7.95;2.50;;;20.10;99.90;;;;;;5054528;28;20082;-63
2022/07/29 10:59:39;;;;;;;6.72;2.47;;;20.20;99.90;;;;;;5069171;28;20087;-63
2022/07/29 11:02:48;;;;;;;4.40;2.50;;;20.30;99.90;;;;;;5054749;28;20033;-63
2022/07/29 11:05:19;;;;;;;5.18;2.60;;;20.30;99.90;;;;;;5071709;28;20097;-62
2022/07/29 11:08:11;;;;;;;6.07;2.88;;;20.40;99.90;;;;;;5072207;28;20166;-63
2022/07/29 11:10:37;;;;;;;7.78;2.92;;;20.40;99.90;;;;;;5072181;28;20098;-61
2022/07/29 11:13:03;;;;;;;8.13;2.53;;;20.50;99.90;;;;;;5054468;28;20089;-63
2022/07/29 11:15:49;;;;;;;5.60;2.85;;;20.50;99.90;;;;;;5071122;28;20119;-63
2022/07/29 11:18:15;;;;;;;9.30;2.83;;;20.50;99.90;;;;;;5071269;28;20391;-62
2022/07/29 11:20:54;;;;;;;4.88;3.30;;;20.50;99.90;;;;;;5071282;28;20036;-62
2022/07/29 11:23:31;;;;;;;6.53;3.60;;;20.40;99.90;;;;;;5071059;28;20480;-62
2022/07/29 11:26:13;;;;;;;6.35;3.10;;;20.40;99.90;;;;;;5057298;28;20389;-63
2022/07/29 11:28:51;;;;;;;10.18;3.33;;;20.50;99.90;;;;;;5072680;28;20051;-62
2022/07/29 11:31:44;;;;;;;6.28;2.95;;;20.60;99.90;;;;;;5091633;28;20106;-63
2022/07/29 11:34:22;;;;;;;4.93;2.85;;;20.70;99.90;;;;;;5056087;28;20044;-63
2022/07/29 11:37:10;;;;;;;10.05;3.45;;;20.90;99.90;;;;;;5076003;28;20078;-63
2022/07/29 11:39:52;;;;;;;7.07;3.92;;;21.30;99.90;;;;;;5075149;28;20054;-62
2022/07/29 11:42:24;;;;;;;4.68;2.72;;;21.60;99.90;;;;;;5074745;28;20044;-63
2022/07/29 11:44:56;;;;;;;5.60;2.90;;;21.80;99.90;;;;;;5075891;28;20453;-63
2022/07/29 11:47:22;;;;;;;5.13;3.08;;;21.90;99.90;;;;;;5075851;28;20052;-64
2022/07/29 11:49:50;;;;;;;7.82;3.22;;;21.90;99.90;;;;;;5057717;28;20070;-63
2022/07/29 11:52:17;;;;;;;5.85;2.70;;;22.10;99.90;;;;;;5074326;28;20048;-64
2022/07/29 11:54:43;;;;;;;6.72;2.83;;;22.20;99.90;;;;;;5075828;28;20401;-64
2022/07/29 11:57:10;;;;;;;7.70;2.63;;;22.40;99.90;;;;;;5075551;28;20075;-63
2022/07/29 11:59:44;;;;;;;6.00;2.90;;;22.80;99.90;;;;;;5055917;28;20443;-63
2022/07/29 12:02:11;;;;;;;5.95;3.00;;;23.20;99.90;;;;;;5074207;28;20136;-64
2022/07/29 12:04:57;;;;;;;9.88;4.68;;;23.40;99.90;;;;;;5074155;28;20086;-64
2022/07/29 12:07:33;;;;;;;5.72;3.33;;;23.60;99.90;;;;;;5108255;28;20052;-63
2022/07/29 12:10:01;;;;;;;6.50;3.00;;;23.70;99.90;;;;;;5074450;28;20036;-64
2022/07/29 12:12:27;;;;;;;5.03;3.08;;;23.80;99.90;;;;;;5074222;28;20055;-62
2022/07/29 12:14:55;;;;;;;5.50;3.08;;;23.80;99.90;;;;;;5075431;28;20045;-63
2022/07/29 12:17:37;;;;;;;5.50;3.17;;;23.60;99.90;;;;;;5075260;28;20064;-63
2022/07/29 12:20:04;;;;;;;5.50;3.03;;;23.40;99.90;;;;;;5075463;28;20146;-63
2022/07/29 12:22:40;;;;;;;6.65;3.42;;;23.20;99.90;;;;;;5074255;28;20162;-63
2022/07/29 12:25:14;;;;;;;7.40;3.42;;;23.10;99.90;;;;;;5073963;28;20052;-62
2022/07/29 12:27:40;;;;;;;6.53;3.40;;;23.00;99.90;;;;;;5075403;28;20040;-63
2022/07/29 12:30:08;;;;;;;10.43;3.88;;;22.90;99.90;;;;;;5055250;28;20029;-63
2022/07/29 12:32:44;;;;;;;5.00;3.03;;;22.90;99.90;;;;;;5057122;28;20473;-63
2022/07/29 12:35:21;;;;;;;6.65;3.45;;;22.90;99.90;;;;;;5075216;28;20518;-63
2022/07/29 12:37:49;;;;;;;6.65;3.50;;;22.90;99.90;;;;;;5074676;28;20040;-63
2022/07/29 12:40:16;;;;;;;4.78;3.03;;;22.90;99.90;;;;;;5057196;28;20045;-63
2022/07/29 12:43:05;;;;;;;6.85;2.80;;;23.00;99.90;;;;;;5074992;28;20087;-63
2022/07/29 12:45:31;;;;;;;4.50;2.72;;;23.00;99.90;;;;;;5067518;28;20056;-63
2022/07/29 12:47:57;;;;;;;5.75;2.72;;;23.10;99.90;;;;;;5074868;28;20566;-63
2022/07/29 12:50:24;;;;;;;6.68;2.45;;;23.20;99.90;;;;;;5074696;28;20126;-64
2022/07/29 12:52:50;;;;;;;6.57;2.33;;;23.30;99.90;;;;;;5074751;28;20080;-64
2022/07/29 12:55:44;;;;;;;4.78;1.70;;;23.50;99.90;;;;;;5073816;28;20063;-62
2022/07/29 12:58:10;;;;;;;7.13;1.85;;;23.60;99.90;;;;;;5073580;28;20504;-61
2022/07/29 13:00:36;;;;;;;5.35;1.55;;;23.60;99.90;;;;;;5071002;28;20079;-61
2022/07/29 13:03:02;;;;;;;6.05;2.30;;;23.60;99.90;;;;;;5074309;28;20055;-62
2022/07/29 13:05:43;;;;;;;3.28;1.52;;;23.60;99.90;;;;;;5074731;28;20041;-61